createdAt,value
2018-01-12T00:00:04.388Z,1019.84
2018-01-12T00:01:04.255Z,1019.84
2018-01-12T00:02:04.293Z,1019.82
2018-01-12T00:03:04.203Z,1019.82
2018-01-12T00:04:04.205Z,1019.86
2018-01-12T00:05:04.147Z,1019.84
2018-01-12T00:06:04.218Z,1019.89
2018-01-12T00:07:04.098Z,1019.90
2018-01-12T00:08:04.128Z,1019.91
2018-01-12T00:09:04.038Z,1019.93
2018-01-12T00:10:04.037Z,1019.96
2018-01-12T00:11:03.984Z,1019.93
2018-01-12T00:12:04.051Z,1019.97
2018-01-12T00:13:03.929Z,1019.93
2018-01-12T00:14:03.967Z,1019.91
2018-01-12T00:15:03.875Z,1019.91
2018-01-12T00:16:03.870Z,1019.93
2018-01-12T00:17:03.821Z,1019.94
2018-01-12T00:18:03.883Z,1019.93
2018-01-12T00:19:03.766Z,1019.92
2018-01-12T00:20:03.805Z,1019.91
2018-01-12T00:21:03.713Z,1019.93
2018-01-12T00:22:03.704Z,1019.88
2018-01-12T00:23:03.657Z,1019.93
2018-01-12T00:24:03.715Z,1019.92
2018-01-12T00:25:03.606Z,1019.93
2018-01-12T00:26:03.624Z,1019.91
2018-01-12T00:27:03.548Z,1019.93
2018-01-12T00:28:03.534Z,1019.96
2018-01-12T00:29:03.493Z,1019.97
2018-01-12T00:30:03.548Z,1020.00
2018-01-12T00:31:03.439Z,1019.96
2018-01-12T00:32:03.460Z,1020.00
2018-01-12T00:33:03.385Z,1019.98
2018-01-12T00:34:03.470Z,1020.00
2018-01-12T00:35:03.332Z,1020.01
2018-01-12T00:36:03.382Z,1020.01
2018-01-12T00:37:03.278Z,1020.00
2018-01-12T00:38:03.288Z,1020.01
2018-01-12T00:39:03.221Z,1020.01
2018-01-12T00:40:03.304Z,1020.02
2018-01-12T00:41:03.164Z,1020.02
2018-01-12T00:42:03.212Z,1020.05
2018-01-12T00:43:03.119Z,1020.09
2018-01-12T00:44:03.124Z,1020.04
2018-01-12T00:45:03.057Z,1020.04
2018-01-12T00:46:03.138Z,1020.07
2018-01-12T00:47:03.000Z,1020.07
2018-01-12T00:48:03.045Z,1020.08
2018-01-12T00:49:02.944Z,1020.11
2018-01-12T00:50:02.956Z,1020.12
2018-01-12T00:51:02.891Z,1020.09
2018-01-12T00:52:02.970Z,1020.11
2018-01-12T00:53:02.836Z,1020.13
2018-01-12T00:54:02.877Z,1020.12
2018-01-12T00:55:02.782Z,1020.12
2018-01-12T00:56:02.787Z,1020.19
2018-01-12T00:57:02.729Z,1020.19
2018-01-12T00:58:02.801Z,1020.13
2018-01-12T00:59:02.672Z,1020.13
2018-01-12T01:00:02.709Z,1020.14
2018-01-12T01:01:02.616Z,1020.15
2018-01-12T01:02:02.622Z,1020.15
2018-01-12T01:03:02.562Z,1020.14
2018-01-12T01:04:02.634Z,1020.19
2018-01-12T01:05:02.508Z,1020.16
2018-01-12T01:06:02.542Z,1020.19
2018-01-12T01:07:02.454Z,1020.21
2018-01-12T01:08:02.451Z,1020.24
2018-01-12T01:09:02.397Z,1020.23
2018-01-12T01:10:02.470Z,1020.24
2018-01-12T01:11:02.344Z,1020.27
2018-01-12T01:12:02.377Z,1020.24
2018-01-12T01:13:02.288Z,1020.28
2018-01-12T01:14:02.286Z,1020.30
2018-01-12T01:15:02.244Z,1020.28
2018-01-12T01:16:02.301Z,1020.23
2018-01-12T01:17:02.174Z,1020.28
2018-01-12T01:18:02.211Z,1020.23
2018-01-12T01:19:02.123Z,1020.24
2018-01-12T01:20:03.146Z,1020.27
2018-01-12T01:21:02.069Z,1020.28
2018-01-12T01:22:02.133Z,1020.26
2018-01-12T01:23:02.012Z,1020.27
2018-01-12T01:24:02.044Z,1020.28
2018-01-12T01:25:01.961Z,1020.26
2018-01-12T01:26:01.949Z,1020.28
2018-01-12T01:27:01.900Z,1020.28
2018-01-12T01:28:01.963Z,1020.29
2018-01-12T01:29:01.845Z,1020.35
2018-01-12T01:30:01.874Z,1020.35
2018-01-12T01:31:01.792Z,1020.41
2018-01-12T01:32:01.784Z,1020.42
2018-01-12T01:33:01.737Z,1020.43
2018-01-12T01:34:01.797Z,1020.44
2018-01-12T01:35:01.681Z,1020.45
2018-01-12T01:36:01.706Z,1020.43
2018-01-12T01:37:01.625Z,1020.41
2018-01-12T01:38:01.618Z,1020.44
2018-01-12T01:39:01.570Z,1020.47
2018-01-12T01:40:01.629Z,1020.50
2018-01-12T01:41:01.517Z,1020.51
2018-01-12T01:42:01.540Z,1020.51
2018-01-12T01:43:01.461Z,1020.51
2018-01-12T01:44:01.448Z,1020.55
2018-01-12T01:45:01.408Z,1020.56
2018-01-12T01:46:01.463Z,1020.62
2018-01-12T01:47:01.350Z,1020.60
2018-01-12T01:48:01.371Z,1020.58
2018-01-12T01:49:01.297Z,1020.60
2018-01-12T01:50:01.283Z,1020.58
2018-01-12T01:51:01.241Z,1020.56
2018-01-12T01:52:01.293Z,1020.53
2018-01-12T01:53:01.186Z,1020.61
2018-01-12T01:54:01.204Z,1020.57
2018-01-12T01:55:01.131Z,1020.57
2018-01-12T01:56:01.220Z,1020.63
2018-01-12T01:57:01.074Z,1020.63
2018-01-12T01:58:01.130Z,1020.61
2018-01-12T01:59:01.022Z,1020.64
2018-01-12T02:00:01.037Z,1020.67
2018-01-12T02:01:00.967Z,1020.64
2018-01-12T02:02:01.047Z,1020.74
2018-01-12T02:03:00.908Z,1020.70
2018-01-12T02:04:00.963Z,1020.67
2018-01-12T02:05:00.852Z,1020.68
2018-01-12T02:06:00.870Z,1020.68
2018-01-12T02:07:00.800Z,1020.68
2018-01-12T02:08:00.984Z,1020.66
2018-01-12T02:09:00.741Z,1020.70
2018-01-12T02:10:00.897Z,1020.69
2018-01-12T02:11:00.686Z,1020.69
2018-01-12T02:12:00.663Z,1020.67
2018-01-12T02:13:00.633Z,1020.68
2018-01-12T02:14:00.825Z,1020.72
2018-01-12T02:15:00.575Z,1020.71
2018-01-12T02:16:00.625Z,1020.69
2018-01-12T02:17:00.521Z,1020.71
2018-01-12T02:18:00.544Z,1020.68
2018-01-12T02:19:00.465Z,1020.68
2018-01-12T02:20:00.557Z,1020.72
2018-01-12T02:21:00.408Z,1020.76
2018-01-12T02:22:00.470Z,1020.77
2018-01-12T02:23:00.355Z,1020.83
2018-01-12T02:24:00.379Z,1020.82
2018-01-12T02:25:00.305Z,1020.83
2018-01-12T02:26:00.395Z,1020.87
2018-01-12T02:27:00.244Z,1020.85
2018-01-12T02:28:00.305Z,1020.82
2018-01-12T02:29:00.185Z,1020.81
2018-01-12T02:30:00.215Z,1020.86
2018-01-12T02:31:00.134Z,1020.88
2018-01-12T02:32:00.229Z,1020.90
2018-01-12T02:33:00.078Z,1020.87
2018-01-12T02:34:00.142Z,1020.87
2018-01-12T02:35:00.027Z,1020.87
2018-01-12T02:36:00.054Z,1020.90
2018-01-12T02:36:59.967Z,1020.93
2018-01-12T02:38:00.068Z,1020.92
2018-01-12T02:38:59.910Z,1020.91
2018-01-12T02:39:59.978Z,1020.90
2018-01-12T02:40:59.854Z,1020.93
2018-01-12T02:41:59.891Z,1020.90
2018-01-12T02:42:59.800Z,1020.85
2018-01-12T02:43:59.905Z,1020.87
2018-01-12T02:44:59.748Z,1020.84
2018-01-12T02:45:59.816Z,1020.85
2018-01-12T02:46:59.686Z,1020.84
2018-01-12T02:47:59.758Z,1020.87
2018-01-12T02:48:59.634Z,1020.85
2018-01-12T02:49:59.742Z,1020.86
2018-01-12T02:50:59.578Z,1020.84
2018-01-12T02:51:59.653Z,1020.88
2018-01-12T02:52:59.523Z,1020.86
2018-01-12T02:53:59.564Z,1020.84
2018-01-12T02:54:59.467Z,1020.84
2018-01-12T02:55:59.577Z,1020.83
2018-01-12T02:56:59.424Z,1020.83
2018-01-12T02:57:59.489Z,1020.84
2018-01-12T02:58:59.357Z,1020.85
2018-01-12T02:59:59.402Z,1020.86
2018-01-12T03:00:59.300Z,1020.86
2018-01-12T03:01:59.415Z,1020.89
2018-01-12T03:02:59.246Z,1020.89
2018-01-12T03:03:59.326Z,1020.92
2018-01-12T03:04:59.192Z,1020.90
2018-01-12T03:05:59.237Z,1020.93
2018-01-12T03:06:59.133Z,1020.91
2018-01-12T03:07:59.254Z,1020.93
2018-01-12T03:08:59.080Z,1020.93
2018-01-12T03:09:59.165Z,1020.94
2018-01-12T03:10:59.024Z,1020.97
2018-01-12T03:11:59.075Z,1020.96
2018-01-12T03:12:58.968Z,1021.01
2018-01-12T03:13:59.099Z,1020.99
2018-01-12T03:14:58.913Z,1021.01
2018-01-12T03:15:59.001Z,1021.00
2018-01-12T03:16:58.856Z,1021.00
2018-01-12T03:17:58.911Z,1021.04
2018-01-12T03:18:58.801Z,1021.02
2018-01-12T03:19:58.926Z,1021.02
2018-01-12T03:20:58.745Z,1021.00
2018-01-12T03:21:58.835Z,1021.01
2018-01-12T03:22:58.689Z,1021.02
2018-01-12T03:23:58.747Z,1021.03
2018-01-12T03:24:58.632Z,1021.00
2018-01-12T03:25:58.762Z,1021.04
2018-01-12T03:26:58.577Z,1021.03
2018-01-12T03:27:58.674Z,1021.02
2018-01-12T03:28:58.523Z,1021.04
2018-01-12T03:29:58.585Z,1021.05
2018-01-12T03:30:58.469Z,1021.02
2018-01-12T03:31:58.600Z,1020.99
2018-01-12T03:32:58.413Z,1021.05
2018-01-12T03:33:58.510Z,1021.02
2018-01-12T03:34:58.356Z,1021.00
2018-01-12T03:35:58.423Z,1021.02
2018-01-12T03:36:58.300Z,1021.05
2018-01-12T03:37:58.436Z,1021.04
2018-01-12T03:38:58.247Z,1021.04
2018-01-12T03:39:58.346Z,1021.02
2018-01-12T03:40:58.187Z,1021.03
2018-01-12T03:41:58.259Z,1021.04
2018-01-12T03:42:58.134Z,1021.09
2018-01-12T03:43:58.271Z,1021.01
2018-01-12T03:44:58.088Z,1020.99
2018-01-12T03:45:58.184Z,1020.98
2018-01-12T03:46:58.023Z,1021.02
2018-01-12T03:47:58.095Z,1020.98
2018-01-12T03:48:57.967Z,1020.98
2018-01-12T03:49:58.109Z,1021.00
2018-01-12T03:50:57.912Z,1021.00
2018-01-12T03:51:58.021Z,1020.98
2018-01-12T03:52:57.858Z,1021.02
2018-01-12T03:53:57.932Z,1021.05
2018-01-12T03:54:57.800Z,1021.11
2018-01-12T03:55:57.947Z,1021.15
2018-01-12T03:56:57.745Z,1021.13
2018-01-12T03:57:57.857Z,1021.14
2018-01-12T03:58:57.689Z,1021.13
2018-01-12T03:59:57.769Z,1021.15
2018-01-12T04:00:57.634Z,1021.17
2018-01-12T04:01:57.782Z,1021.17
2018-01-12T04:02:57.582Z,1021.18
2018-01-12T04:03:57.701Z,1021.14
2018-01-12T04:04:57.521Z,1021.15
2018-01-12T04:05:57.606Z,1021.16
2018-01-12T04:06:57.472Z,1021.14
2018-01-12T04:07:57.620Z,1021.18
2018-01-12T04:08:57.413Z,1021.14
2018-01-12T04:09:57.531Z,1021.15
2018-01-12T04:10:57.366Z,1021.15
2018-01-12T04:11:57.434Z,1021.16
2018-01-12T04:12:57.302Z,1021.17
2018-01-12T04:13:57.453Z,1021.20
2018-01-12T04:14:57.247Z,1021.22
2018-01-12T04:15:57.367Z,1021.20
2018-01-12T04:16:57.192Z,1021.19
2018-01-12T04:17:57.282Z,1021.18
2018-01-12T04:18:57.138Z,1021.22
2018-01-12T04:19:57.294Z,1021.21
2018-01-12T04:20:57.081Z,1021.20
2018-01-12T04:21:57.206Z,1021.19
2018-01-12T04:22:57.026Z,1021.21
2018-01-12T04:23:57.115Z,1021.23
2018-01-12T04:24:56.969Z,1021.16
2018-01-12T04:25:57.131Z,1021.14
2018-01-12T04:26:56.915Z,1021.23
2018-01-12T04:27:57.045Z,1021.15
2018-01-12T04:28:56.861Z,1021.16
2018-01-12T04:29:56.951Z,1021.18
2018-01-12T04:30:56.806Z,1021.16
2018-01-12T04:31:56.969Z,1021.14
2018-01-12T04:32:56.748Z,1021.17
2018-01-12T04:33:56.881Z,1021.15
2018-01-12T04:34:56.693Z,1021.12
2018-01-12T04:35:56.792Z,1021.12
2018-01-12T04:36:56.636Z,1021.13
2018-01-12T04:37:56.807Z,1021.13
2018-01-12T04:38:56.583Z,1021.11
2018-01-12T04:39:56.718Z,1021.15
2018-01-12T04:40:56.528Z,1021.13
2018-01-12T04:41:56.525Z,1021.11
2018-01-12T04:42:56.472Z,1021.14
2018-01-12T04:43:56.538Z,1021.11
2018-01-12T04:44:56.420Z,1021.12
2018-01-12T04:45:56.451Z,1021.13
2018-01-12T04:46:56.361Z,1021.13
2018-01-12T04:47:56.362Z,1021.09
2018-01-12T04:48:56.310Z,1021.12
2018-01-12T04:49:56.377Z,1021.13
2018-01-12T04:50:56.250Z,1021.11
2018-01-12T04:51:56.287Z,1021.08
2018-01-12T04:52:56.198Z,1021.08
2018-01-12T04:53:56.201Z,1021.07
2018-01-12T04:54:56.141Z,1021.04
2018-01-12T04:55:56.213Z,1021.07
2018-01-12T04:56:56.084Z,1021.07
2018-01-12T04:57:56.130Z,1021.06
2018-01-12T04:58:56.030Z,1021.04
2018-01-12T04:59:56.036Z,1021.05
2018-01-12T05:00:55.971Z,1020.98
2018-01-12T05:01:56.059Z,1020.99
2018-01-12T05:02:55.919Z,1021.02
2018-01-12T05:03:55.960Z,1021.03
2018-01-12T05:04:55.864Z,1021.07
2018-01-12T05:05:55.877Z,1021.07
2018-01-12T05:06:55.807Z,1021.03
2018-01-12T05:07:55.885Z,1021.03
2018-01-12T05:08:55.753Z,1021.03
2018-01-12T05:09:55.801Z,1021.07
2018-01-12T05:10:55.699Z,1021.09
2018-01-12T05:11:55.813Z,1021.08
2018-01-12T05:12:55.641Z,1021.11
2018-01-12T05:13:55.726Z,1021.13
2018-01-12T05:14:55.599Z,1021.14
2018-01-12T05:15:55.637Z,1021.13
2018-01-12T05:16:55.530Z,1021.16
2018-01-12T05:17:55.650Z,1021.19
2018-01-12T05:18:55.477Z,1021.19
2018-01-12T05:19:55.561Z,1021.19
2018-01-12T05:20:55.418Z,1021.22
2018-01-12T05:21:55.516Z,1021.18
2018-01-12T05:22:55.364Z,1021.18
2018-01-12T05:23:55.489Z,1021.16
2018-01-12T05:24:55.307Z,1021.15
2018-01-12T05:25:55.400Z,1021.12
2018-01-12T05:26:55.252Z,1021.11
2018-01-12T05:27:55.309Z,1021.10
2018-01-12T05:28:55.194Z,1021.12
2018-01-12T05:29:55.325Z,1021.08
2018-01-12T05:30:55.144Z,1021.11
2018-01-12T05:31:55.233Z,1021.06
2018-01-12T05:32:55.087Z,1021.08
2018-01-12T05:33:55.144Z,1021.13
2018-01-12T05:34:55.054Z,1021.13
2018-01-12T05:35:55.163Z,1021.13
2018-01-12T05:36:54.974Z,1021.13
2018-01-12T05:37:55.071Z,1021.15
2018-01-12T05:38:54.920Z,1021.15
2018-01-12T05:39:54.981Z,1021.20
2018-01-12T05:40:54.863Z,1021.22
2018-01-12T05:41:54.995Z,1021.22
2018-01-12T05:42:54.811Z,1021.27
2018-01-12T05:43:54.906Z,1021.28
2018-01-12T05:44:54.752Z,1021.27
2018-01-12T05:45:54.819Z,1021.28
2018-01-12T05:46:54.696Z,1021.28
2018-01-12T05:47:54.837Z,1021.29
2018-01-12T05:48:54.640Z,1021.35
2018-01-12T05:49:54.744Z,1021.29
2018-01-12T05:50:54.584Z,1021.33
2018-01-12T05:51:54.656Z,1021.34
2018-01-12T05:52:54.529Z,1021.36
2018-01-12T05:53:54.670Z,1021.37
2018-01-12T05:54:54.472Z,1021.34
2018-01-12T05:55:54.582Z,1021.36
2018-01-12T05:56:54.420Z,1021.34
2018-01-12T05:57:54.496Z,1021.33
2018-01-12T05:58:54.360Z,1021.33
2018-01-12T05:59:54.508Z,1021.30
2018-01-12T06:00:54.306Z,1021.32
2018-01-12T06:01:54.417Z,1021.35
2018-01-12T06:02:54.256Z,1021.39
2018-01-12T06:03:54.329Z,1021.35
2018-01-12T06:04:54.194Z,1021.33
2018-01-12T06:05:54.342Z,1021.34
2018-01-12T06:06:54.141Z,1021.33
2018-01-12T06:07:54.254Z,1021.34
2018-01-12T06:08:54.082Z,1021.29
2018-01-12T06:09:54.165Z,1021.33
2018-01-12T06:10:54.030Z,1021.31
2018-01-12T06:11:54.179Z,1021.30
2018-01-12T06:12:53.970Z,1021.30
2018-01-12T06:13:54.091Z,1021.33
2018-01-12T06:14:53.916Z,1021.32
2018-01-12T06:15:54.001Z,1021.35
2018-01-12T06:16:53.861Z,1021.39
2018-01-12T06:17:54.018Z,1021.38
2018-01-12T06:18:53.808Z,1021.35
2018-01-12T06:19:53.932Z,1021.34
2018-01-12T06:20:53.751Z,1021.37
2018-01-12T06:21:53.844Z,1021.39
2018-01-12T06:22:53.694Z,1021.41
2018-01-12T06:23:53.853Z,1021.45
2018-01-12T06:24:53.638Z,1021.43
2018-01-12T06:25:53.763Z,1021.41
2018-01-12T06:26:53.583Z,1021.48
2018-01-12T06:27:53.675Z,1021.49
2018-01-12T06:28:53.527Z,1021.50
2018-01-12T06:29:53.697Z,1021.51
2018-01-12T06:30:53.479Z,1021.53
2018-01-12T06:31:53.606Z,1021.54
2018-01-12T06:32:53.418Z,1021.57
2018-01-12T06:33:53.515Z,1021.60
2018-01-12T06:34:53.363Z,1021.60
2018-01-12T06:35:53.528Z,1021.61
2018-01-12T06:36:53.304Z,1021.65
2018-01-12T06:37:53.439Z,1021.64
2018-01-12T06:38:53.249Z,1021.67
2018-01-12T06:39:53.357Z,1021.68
2018-01-12T06:40:53.196Z,1021.70
2018-01-12T06:41:53.365Z,1021.67
2018-01-12T06:42:53.136Z,1021.67
2018-01-12T06:43:53.275Z,1021.68
2018-01-12T06:44:53.081Z,1021.71
2018-01-12T06:45:53.189Z,1021.78
2018-01-12T06:46:53.025Z,1021.72
2018-01-12T06:47:53.200Z,1021.74
2018-01-12T06:48:52.969Z,1021.73
2018-01-12T06:49:53.112Z,1021.75
2018-01-12T06:50:52.917Z,1021.76
2018-01-12T06:51:53.023Z,1021.80
2018-01-12T06:52:52.858Z,1021.80
2018-01-12T06:53:53.037Z,1021.76
2018-01-12T06:54:52.804Z,1021.82
2018-01-12T06:55:52.951Z,1021.85
2018-01-12T06:56:52.750Z,1021.84
2018-01-12T06:57:52.859Z,1021.84
2018-01-12T06:58:52.693Z,1021.89
2018-01-12T06:59:52.873Z,1021.89
2018-01-12T07:00:52.636Z,1021.90
2018-01-12T07:01:52.785Z,1021.93
2018-01-12T07:02:52.582Z,1021.93
2018-01-12T07:03:52.696Z,1021.89
2018-01-12T07:04:52.528Z,1021.92
2018-01-12T07:05:52.712Z,1021.89
2018-01-12T07:06:52.470Z,1021.90
2018-01-12T07:07:52.521Z,1021.88
2018-01-12T07:08:52.417Z,1021.88
2018-01-12T07:09:52.437Z,1021.88
2018-01-12T07:10:52.359Z,1021.89
2018-01-12T07:11:52.446Z,1021.89
2018-01-12T07:12:52.304Z,1021.88
2018-01-12T07:13:52.355Z,1021.89
2018-01-12T07:14:52.249Z,1021.91
2018-01-12T07:15:52.268Z,1021.87
2018-01-12T07:16:52.196Z,1021.84
2018-01-12T07:17:52.281Z,1021.88
2018-01-12T07:18:52.139Z,1021.91
2018-01-12T07:19:52.196Z,1021.89
2018-01-12T07:20:52.079Z,1021.85
2018-01-12T07:21:52.106Z,1021.85
2018-01-12T07:22:52.028Z,1021.87
2018-01-12T07:23:52.119Z,1021.89
2018-01-12T07:24:51.972Z,1021.93
2018-01-12T07:25:52.030Z,1021.96
2018-01-12T07:26:51.914Z,1021.93
2018-01-12T07:27:51.941Z,1021.94
2018-01-12T07:28:51.859Z,1021.99
2018-01-12T07:29:51.956Z,1021.95
2018-01-12T07:30:51.804Z,1021.92
2018-01-12T07:31:51.866Z,1021.91
2018-01-12T07:32:51.748Z,1021.98
2018-01-12T07:33:51.780Z,1022.01
2018-01-12T07:34:51.694Z,1021.98
2018-01-12T07:35:51.792Z,1021.98
2018-01-12T07:36:51.636Z,1022.03
2018-01-12T07:37:51.701Z,1022.04
2018-01-12T07:38:51.584Z,1022.05
2018-01-12T07:39:51.616Z,1022.05
2018-01-12T07:40:51.528Z,1022.09
2018-01-12T07:41:51.632Z,1022.13
2018-01-12T07:42:51.470Z,1022.13
2018-01-12T07:43:51.565Z,1022.12
2018-01-12T07:44:51.413Z,1022.13
2018-01-12T07:45:51.452Z,1022.15
2018-01-12T07:46:51.361Z,1022.16
2018-01-12T07:47:51.469Z,1022.11
2018-01-12T07:48:51.305Z,1022.14
2018-01-12T07:49:51.377Z,1022.07
2018-01-12T07:50:51.249Z,1022.11
2018-01-12T07:51:51.288Z,1022.09
2018-01-12T07:52:51.189Z,1022.14
2018-01-12T07:53:51.303Z,1022.07
2018-01-12T07:54:51.139Z,1022.10
2018-01-12T07:55:51.218Z,1022.09
2018-01-12T07:56:51.081Z,1022.05
2018-01-12T07:57:51.125Z,1022.11
2018-01-12T07:58:51.027Z,1022.11
2018-01-12T07:59:51.138Z,1022.13
2018-01-12T08:00:51.008Z,1022.14
2018-01-12T08:01:51.050Z,1022.15
2018-01-12T08:02:50.915Z,1022.14
2018-01-12T08:03:50.961Z,1022.21
2018-01-12T08:04:50.858Z,1022.20
2018-01-12T08:05:50.975Z,1022.20
2018-01-12T08:06:50.805Z,1022.24
2018-01-12T08:07:50.888Z,1022.25
2018-01-12T08:08:50.750Z,1022.29
2018-01-12T08:09:50.799Z,1022.32
2018-01-12T08:10:50.693Z,1022.36
2018-01-12T08:11:50.812Z,1022.35
2018-01-12T08:12:50.637Z,1022.36
2018-01-12T08:13:50.724Z,1022.41
2018-01-12T08:14:50.583Z,1022.43
2018-01-12T08:15:50.635Z,1022.50
2018-01-12T08:16:50.534Z,1022.50
2018-01-12T08:17:50.649Z,1022.47
2018-01-12T08:18:50.472Z,1022.49
2018-01-12T08:19:50.561Z,1022.51
2018-01-12T08:20:50.417Z,1022.46
2018-01-12T08:21:50.470Z,1022.48
2018-01-12T08:22:50.367Z,1022.45
2018-01-12T08:23:50.486Z,1022.43
2018-01-12T08:24:50.307Z,1022.44
2018-01-12T08:25:50.397Z,1022.44
2018-01-12T08:26:50.250Z,1022.47
2018-01-12T08:27:50.308Z,1022.48
2018-01-12T08:28:50.195Z,1022.48
2018-01-12T08:29:50.322Z,1022.49
2018-01-12T08:30:50.141Z,1022.52
2018-01-12T08:31:50.235Z,1022.53
2018-01-12T08:32:50.085Z,1022.50
2018-01-12T08:33:50.194Z,1022.55
2018-01-12T08:34:50.030Z,1022.55
2018-01-12T08:35:50.159Z,1022.48
2018-01-12T08:36:49.975Z,1022.50
2018-01-12T08:37:49.945Z,1022.53
2018-01-12T08:38:49.919Z,1022.53
2018-01-12T08:39:49.982Z,1022.55
2018-01-12T08:40:49.862Z,1022.55
2018-01-12T08:41:49.893Z,1022.57
2018-01-12T08:42:49.810Z,1022.59
2018-01-12T08:43:49.782Z,1022.53
2018-01-12T08:44:49.812Z,1022.53
2018-01-12T08:45:49.727Z,1022.56
2018-01-12T08:46:49.731Z,1022.56
2018-01-12T08:47:49.670Z,1022.63
2018-01-12T08:48:49.739Z,1022.63
2018-01-12T08:49:49.617Z,1022.59
2018-01-12T08:50:49.648Z,1022.60
2018-01-12T08:51:49.563Z,1022.62
2018-01-12T08:52:49.559Z,1022.61
2018-01-12T08:53:49.503Z,1022.58
2018-01-12T08:54:49.575Z,1022.61
2018-01-12T08:55:49.448Z,1022.61
2018-01-12T08:56:49.485Z,1022.62
2018-01-12T08:57:49.393Z,1022.69
2018-01-12T08:58:49.396Z,1022.67
2018-01-12T08:59:49.337Z,1022.64
2018-01-12T09:00:49.412Z,1022.66
2018-01-12T09:01:49.287Z,1022.69
2018-01-12T09:02:49.320Z,1022.70
2018-01-12T09:03:49.229Z,1022.70
2018-01-12T09:04:49.236Z,1022.74
2018-01-12T09:05:49.175Z,1022.74
2018-01-12T09:06:49.254Z,1022.73
2018-01-12T09:07:49.117Z,1022.73
2018-01-12T09:08:49.162Z,1022.76
2018-01-12T09:09:49.061Z,1022.74
2018-01-12T09:10:49.074Z,1022.76
2018-01-12T09:11:49.008Z,1022.81
2018-01-12T09:12:49.088Z,1022.72
2018-01-12T09:13:48.955Z,1022.76
2018-01-12T09:14:49.001Z,1022.75
2018-01-12T09:15:48.900Z,1022.77
2018-01-12T09:16:48.912Z,1022.76
2018-01-12T09:17:48.845Z,1022.78
2018-01-12T09:18:48.926Z,1022.77
2018-01-12T09:19:48.790Z,1022.76
2018-01-12T09:20:48.836Z,1022.81
2018-01-12T09:21:48.736Z,1022.83
2018-01-12T09:22:48.755Z,1022.87
2018-01-12T09:23:48.681Z,1022.85
2018-01-12T09:24:48.761Z,1022.84
2018-01-12T09:25:48.625Z,1022.88
2018-01-12T09:26:48.676Z,1022.93
2018-01-12T09:27:48.574Z,1022.95
2018-01-12T09:28:48.586Z,1022.99
2018-01-12T09:29:48.514Z,1022.99
2018-01-12T09:30:48.597Z,1022.97
2018-01-12T09:31:48.459Z,1022.98
2018-01-12T09:32:48.509Z,1023.03
2018-01-12T09:33:48.404Z,1023.02
2018-01-12T09:34:48.421Z,1023.03
2018-01-12T09:35:48.350Z,1023.01
2018-01-12T09:36:48.334Z,1023.02
2018-01-12T09:37:48.298Z,1023.05
2018-01-12T09:38:48.346Z,1023.01
2018-01-12T09:39:48.243Z,1023.01
2018-01-12T09:40:48.253Z,1023.06
2018-01-12T09:41:48.186Z,1023.02
2018-01-12T09:42:48.171Z,1022.99
2018-01-12T09:43:48.133Z,1023.04
2018-01-12T09:44:48.183Z,1023.03
2018-01-12T09:45:48.075Z,1023.08
2018-01-12T09:46:48.093Z,1023.10
2018-01-12T09:47:48.019Z,1023.12
2018-01-12T09:48:48.009Z,1023.08
2018-01-12T09:49:47.964Z,1023.08
2018-01-12T09:50:48.020Z,1023.08
2018-01-12T09:51:47.908Z,1023.09
2018-01-12T09:52:47.931Z,1023.09
2018-01-12T09:53:47.856Z,1023.12
2018-01-12T09:54:47.847Z,1023.09
2018-01-12T09:55:47.802Z,1023.11
2018-01-12T09:56:47.860Z,1023.10
2018-01-12T09:57:47.749Z,1023.14
2018-01-12T09:58:47.769Z,1023.11
2018-01-12T09:59:47.693Z,1023.13
2018-01-12T10:00:47.686Z,1023.13
2018-01-12T10:01:47.634Z,1023.14
2018-01-12T10:02:47.697Z,1023.17
2018-01-12T10:03:47.582Z,1023.20
2018-01-12T10:04:47.610Z,1023.21
2018-01-12T10:05:47.527Z,1023.19
2018-01-12T10:06:47.518Z,1023.22
2018-01-12T10:07:47.508Z,1023.24
2018-01-12T10:08:47.532Z,1023.21
2018-01-12T10:09:47.426Z,1023.20
2018-01-12T10:10:47.442Z,1023.24
2018-01-12T10:11:47.365Z,1023.22
2018-01-12T10:12:47.353Z,1023.26
2018-01-12T10:13:47.310Z,1023.26
2018-01-12T10:14:47.368Z,1023.29
2018-01-12T10:15:47.255Z,1023.30
2018-01-12T10:16:47.278Z,1023.31
2018-01-12T10:17:47.200Z,1023.28
2018-01-12T10:18:47.189Z,1023.30
2018-01-12T10:19:47.145Z,1023.25
2018-01-12T10:20:47.205Z,1023.28
2018-01-12T10:21:47.091Z,1023.22
2018-01-12T10:22:47.120Z,1023.22
2018-01-12T10:23:47.036Z,1023.25
2018-01-12T10:24:47.028Z,1023.25
2018-01-12T10:25:46.987Z,1023.22
2018-01-12T10:26:47.041Z,1023.20
2018-01-12T10:27:46.928Z,1023.18
2018-01-12T10:28:46.951Z,1023.22
2018-01-12T10:29:46.873Z,1023.21
2018-01-12T10:30:46.864Z,1023.22
2018-01-12T10:31:46.825Z,1023.18
2018-01-12T10:32:46.877Z,1023.17
2018-01-12T10:33:46.763Z,1023.16
2018-01-12T10:34:46.788Z,1023.16
2018-01-12T10:35:46.709Z,1023.11
2018-01-12T10:36:46.700Z,1023.16
2018-01-12T10:37:46.657Z,1023.18
2018-01-12T10:38:46.713Z,1023.16
2018-01-12T10:39:46.602Z,1023.17
2018-01-12T10:40:46.624Z,1023.17
2018-01-12T10:41:46.551Z,1023.18
2018-01-12T10:42:46.537Z,1023.16
2018-01-12T10:43:46.493Z,1023.19
2018-01-12T10:44:46.551Z,1023.19
2018-01-12T10:45:46.437Z,1023.18
2018-01-12T10:46:46.460Z,1023.23
2018-01-12T10:47:46.386Z,1023.18
2018-01-12T10:48:46.373Z,1023.21
2018-01-12T10:49:46.328Z,1023.22
2018-01-12T10:50:46.393Z,1023.23
2018-01-12T10:51:46.276Z,1023.23
2018-01-12T10:52:46.301Z,1023.20
2018-01-12T10:53:46.218Z,1023.23
2018-01-12T10:54:46.210Z,1023.17
2018-01-12T10:55:46.173Z,1023.16
2018-01-12T10:56:46.225Z,1023.14
2018-01-12T10:57:46.110Z,1023.16
2018-01-12T10:58:46.137Z,1023.12
2018-01-12T10:59:46.058Z,1023.10
2018-01-12T11:00:46.049Z,1023.09
2018-01-12T11:01:46.003Z,1023.11
2018-01-12T11:02:46.062Z,1023.04
2018-01-12T11:03:45.949Z,1023.04
2018-01-12T11:04:45.973Z,1023.06
2018-01-12T11:05:45.896Z,1023.06
2018-01-12T11:06:45.904Z,1023.04
2018-01-12T11:07:45.839Z,1023.05
2018-01-12T11:08:45.898Z,1023.04
2018-01-12T11:09:45.788Z,1023.05
2018-01-12T11:10:45.809Z,1023.04
2018-01-12T11:11:45.735Z,1023.04
2018-01-12T11:12:45.704Z,1023.05
2018-01-12T11:13:45.676Z,1023.04
2018-01-12T11:14:45.837Z,1023.06
2018-01-12T11:15:45.624Z,1023.07
2018-01-12T11:16:45.750Z,1023.04
2018-01-12T11:17:45.569Z,1023.09
2018-01-12T11:18:45.558Z,1023.09
2018-01-12T11:19:45.516Z,1023.09
2018-01-12T11:20:45.573Z,1023.12
2018-01-12T11:21:45.467Z,1023.08
2018-01-12T11:22:45.484Z,1023.13
2018-01-12T11:23:45.408Z,1023.12
2018-01-12T11:24:45.394Z,1023.11
2018-01-12T11:25:45.351Z,1023.10
2018-01-12T11:26:45.409Z,1023.10
2018-01-12T11:27:45.299Z,1023.05
2018-01-12T11:28:45.319Z,1023.09
2018-01-12T11:29:45.244Z,1023.06
2018-01-12T11:30:45.233Z,1023.04
2018-01-12T11:31:45.189Z,1023.04
2018-01-12T11:32:45.246Z,1023.06
2018-01-12T11:33:45.133Z,1023.03
2018-01-12T11:34:45.156Z,1023.07
2018-01-12T11:35:45.081Z,1023.07
2018-01-12T11:36:45.069Z,1023.07
2018-01-12T11:37:45.029Z,1023.05
2018-01-12T11:38:45.082Z,1023.06
2018-01-12T11:39:44.977Z,1023.07
2018-01-12T11:40:44.994Z,1023.08
2018-01-12T11:41:44.918Z,1023.05
2018-01-12T11:42:45.008Z,1023.04
2018-01-12T11:43:44.866Z,1023.03
2018-01-12T11:44:44.920Z,1023.02
2018-01-12T11:45:44.813Z,1023.01
2018-01-12T11:46:44.830Z,1023.01
2018-01-12T11:47:44.758Z,1022.98
2018-01-12T11:48:44.844Z,1023.02
2018-01-12T11:49:44.704Z,1023.02
2018-01-12T11:50:44.756Z,1023.04
2018-01-12T11:51:44.648Z,1023.02
2018-01-12T11:52:44.667Z,1023.05
2018-01-12T11:53:44.596Z,1023.00
2018-01-12T11:54:44.680Z,1022.98
2018-01-12T11:55:44.544Z,1022.96
2018-01-12T11:56:44.593Z,1022.94
2018-01-12T11:57:44.487Z,1022.97
2018-01-12T11:58:44.504Z,1022.93
2018-01-12T11:59:44.436Z,1022.94
2018-01-12T12:00:44.517Z,1022.89
2018-01-12T12:01:44.380Z,1022.90
2018-01-12T12:02:44.428Z,1022.90
2018-01-12T12:03:44.328Z,1022.89
2018-01-12T12:04:44.340Z,1022.93